Flight Track Log - Related Links

Times and Time Zones

All times are in EDT time to prevent confusion due to time zone crossing. See the UAL4596 flight status page for this flight to view local times or setup timezone preferences in your user account.

Time Position Orientation Groundspeed Altitude Reporting Facility
EDT Latitude Longitude Course Direction KTS MPH feet Rate Location/Type
Wed 06:17:32 PM 38.7236 -90.2469 101° East 172 198 2,300  Level FAA TRACON SMA TRACON (SMA)
Wed 06:17:52 PM 38.7217 -90.2217 96° East 185 213 2,700 1,350 Climbing FAA TRACON SMA TRACON (SMA)
Wed 06:18:12 PM 38.7233 -90.1983 85° East 206 237 3,200 923 Climbing FAA TRACON SMA TRACON (SMA)
Wed 06:18:31 PM 38.7253 -90.1731 84° East 227 261 3,300 1,077 Climbing FAA TRACON SMA TRACON (SMA)
Wed 06:18:51 PM 38.7283 -90.1378 84° East 255 293 3,900 1,800 Climbing FAA TRACON SMA TRACON (SMA)
Wed 06:19:11 PM 38.7308 -90.1089 84° East 265 305 4,500 1,650 Climbing FAA TRACON SMA TRACON (SMA)
Wed 06:19:31 PM 38.7336 -90.0794 83° East 271 312 5,000 1,650 Climbing FAA TRACON SMA TRACON (SMA)
Wed 06:19:51 PM 38.7369 -90.0411 84° East 280 322 5,600 1,800 Climbing FAA TRACON SMA TRACON (SMA)
Wed 06:20:00 PM 38.7610 -89.8181 87° East  Level FlightAware Approximate
Wed 06:20:11 PM 38.7397 -90.0097 84° East 287 330 6,200  Level FAA TRACON SMA TRACON (SMA)
Wed 06:20:32 PM 38.7422 -89.9783 84° East 288 331 6,800 2,049 Climbing FAA TRACON SMA TRACON (SMA)
Wed 06:20:52 PM 38.7456 -89.9389 84° East 291 335 7,600 2,000 Climbing FAA TRACON SMA TRACON (SMA)
Wed 06:21:00 PM 38.7662 -89.6807 87° East  Level FlightAware Approximate
Wed 06:21:11 PM 38.7489 -89.9064 82° East 294 338 8,100  Level FAA TRACON SMA TRACON (SMA)
Wed 06:21:31 PM 38.7517 -89.8742 84° East 297 342 8,700 1,902 Climbing FAA TRACON SMA TRACON (SMA)
Wed 06:21:52 PM 38.7544 -89.8331 85° East 301 346 9,400 1,800 Climbing FAA TRACON SMA TRACON (SMA)
Wed 06:22:00 PM 38.7837 -89.5452 84° East  Level FlightAware Approximate
Wed 06:22:11 PM 38.7578 -89.7997 83° East 304 350 9,900  Level FAA TRACON SMA TRACON (SMA)
Wed 06:22:31 PM 38.7608 -89.7658 83° East 309 356 10,300 1,024 Climbing FAA TRACON SMA TRACON (SMA)
Wed 06:22:52 PM 38.7650 -89.7219 83° East 323 372 10,600 585 Climbing FAA TRACON SMA TRACON (SMA)
Wed 06:23:12 PM 38.7672 -89.6844 86° East 336 387 10,700 450 Climbing FAA TRACON SMA TRACON (SMA)
Wed 06:23:32 PM 38.7711 -89.6461 83° East 349 402 10,900 750 Climbing FAA TRACON SMA TRACON (SMA)
Wed 06:23:52 PM 38.7758 -89.5964 83° East 364 419 11,200 923 Climbing FAA TRACON SMA TRACON (SMA)
Wed 06:24:11 PM 38.7794 -89.5558 83° East 371 427 11,500 923 Climbing FAA TRACON SMA TRACON (SMA)
Wed 06:24:31 PM 38.7831 -89.5147 84° East 376 433 11,800 900 Climbing FAA TRACON SMA TRACON (SMA)
Wed 06:24:51 PM 38.7889 -89.4628 82° East 382 440 12,100 750 Climbing FAA TRACON SMA TRACON (SMA)
Wed 06:25:11 PM 38.7942 -89.4203 81° East 391 450 12,300 1,171 Climbing FAA TRACON SMA TRACON (SMA)
Wed 06:25:32 PM 38.8003 -89.3783 79° East 391 450 12,900 1,800 Climbing FAA TRACON SMA TRACON (SMA)
Wed 06:25:51 PM 38.8081 -89.3261 79° East 387 445 13,500 1,385 Climbing FAA TRACON SMA TRACON (SMA)
Wed 06:26:11 PM 38.8133 -89.2842 81° East 386 444 13,800 1,024 Climbing FAA TRACON SMA TRACON (SMA)
Wed 06:26:32 PM 38.8186 -89.2417 81° East 390 449 14,200 1,050 Climbing FAA TRACON SMA TRACON (SMA)
Wed 06:26:51 PM 38.8250 -89.1886 81° East 392 451 14,500 769 Climbing FAA TRACON SMA TRACON (SMA)
Wed 06:27:11 PM 38.8311 -89.1453 80° East 398 458 14,700 585 Climbing FAA TRACON SMA TRACON (SMA)
Wed 06:27:32 PM 38.8389 -89.1019 77° East 402 463 14,900 600 Climbing FAA TRACON SMA TRACON (SMA)
Wed 06:27:51 PM 38.8428 -89.0686 81° East 406 467 15,100 960 Climbing FAA TRACON SMA TRACON (SMA)
Wed 06:28:22 PM 38.8519 -89.0375 69° East 410 472 15,700 903 Climbing Kansas City Center
Wed 06:29:24 PM 38.8700 -88.9142 79° East 412 474 16,500 960 Climbing Kansas City Center
Wed 06:30:27 PM 38.8919 -88.7369 81° East 419 482 17,700 1,113 Climbing Kansas City Center
Wed 06:31:28 PM 38.9092 -88.5889 81° East 421 484 18,800 984 Climbing Kansas City Center
Wed 06:32:29 PM 38.9286 -88.4408 80° East 420 483 19,700 927 Climbing Kansas City Center
Wed 06:33:31 PM 38.9742 -88.2933 68° East 434 499 20,700 1,026 Climbing Kansas City Center
Wed 06:34:26 PM 39.0139 -88.1431 71° East 440 506 21,700 1,026 Climbing Indianapolis Center
Wed 06:35:28 PM 39.0569 -87.9911 70° East 445 512 22,700 1,016 Climbing Indianapolis Center
Wed 06:36:30 PM 39.0981 -87.8411 71° East 444 511 23,800 629 Climbing Indianapolis Center
Wed 06:37:32 PM 39.1392 -87.6900 71° East 444 511 24,000 97 Climbing Indianapolis Center
Wed 06:38:34 PM 39.1831 -87.5322 70° East 454 522 24,000  Level Indianapolis Center
Wed 06:39:36 PM 39.2500 -87.3781 61° Northeast 485 558 24,000  Level Indianapolis Center
Wed 06:40:38 PM 39.3203 -87.2281 59° Northeast 488 562 24,000 683 Level Indianapolis Center
Wed 06:41:39 PM 39.4136 -87.0592 54° Northeast 479 551 25,400 1,415 Climbing Indianapolis Center
Wed 06:42:41 PM 39.4900 -86.9292 53° Northeast 457 526 26,900 1,403 Climbing Indianapolis Center
Wed 06:43:43 PM 39.5639 -86.8044 52° Northeast 438 504 28,300 1,403 Climbing Indianapolis Center
Wed 06:44:45 PM 39.6258 -86.6772 58° Northeast 417 480 29,800 1,403 Climbing Indianapolis Center
Wed 06:45:47 PM 39.6903 -86.5592 55° Northeast 403 464 31,200 1,403 Climbing Indianapolis Center
Wed 06:46:49 PM 39.7528 -86.4436 55° Northeast 392 451 32,700 871 Climbing Indianapolis Center
Wed 06:47:51 PM 39.8131 -86.3272 56° Northeast 388 447 33,000 146 Climbing Indianapolis Center
Wed 06:48:52 PM 39.8783 -86.2014 56° Northeast 408 470 33,000 98 Level Indianapolis Center
Wed 06:49:54 PM 39.9392 -86.0636 60° Northeast 431 496 33,200 677 Climbing Indianapolis Center
Wed 06:50:56 PM 40.0031 -85.8861 65° Northeast 443 510 34,400 871 Climbing Indianapolis Center
Wed 06:51:58 PM 40.0556 -85.7444 64° Northeast 434 499 35,000 290 Climbing Indianapolis Center
Wed 06:53:00 PM 40.1100 -85.5978 64° Northeast 442 509 35,000  Level Indianapolis Center
Wed 06:54:01 PM 40.1658 -85.4469 64° Northeast 454 522 35,000  Level Indianapolis Center
Wed 06:55:03 PM 40.2208 -85.2967 64° Northeast 455 524 35,000 -48 Level Indianapolis Center
Wed 06:56:05 PM 40.2753 -85.1442 65° Northeast 455 524 34,900  Descending Indianapolis Center
Wed 06:57:07 PM 40.3297 -84.9972 64° Northeast 444 511 35,000 49 Climbing Indianapolis Center
Wed 06:58:08 PM 40.3814 -84.8508 65° Northeast 437 503 35,000  Level Indianapolis Center
Wed 06:59:10 PM 40.4342 -84.7047 65° Northeast 436 502 35,000  Level Indianapolis Center
Wed 07:00:12 PM 40.4858 -84.5592 65° Northeast 434 499 35,000  Level Indianapolis Center
Wed 07:01:13 PM 40.5472 -84.3869 65° Northeast 439 505 35,000  Level Indianapolis Center
Wed 07:02:15 PM 40.5989 -84.2397 65° Northeast 440 506 35,000  Level Indianapolis Center
Wed 07:03:17 PM 40.6511 -84.0900 65° Northeast 442 509 35,000  Level Indianapolis Center
Wed 07:04:18 PM 40.7042 -83.9361 66° East 450 518 35,000 -49 Level Indianapolis Center
Wed 07:05:20 PM 40.7594 -83.7786 65° Northeast 462 532 34,900  Descending Indianapolis Center
Wed 07:06:22 PM 40.8136 -83.6208 66° East 467 537 35,000 76 Climbing Indianapolis Center
Wed 07:06:39 PM 40.8347 -83.5664 63° Northeast 460 529 35,000  Level Cleveland Center
Wed 07:07:39 PM 40.8867 -83.4094 66° East 460 529 35,000  Level Cleveland Center
Wed 07:08:39 PM 40.9408 -83.2467 66° East 472 543 35,000  Level Cleveland Center
Wed 07:09:39 PM 40.9944 -83.0894 66° East 472 543 35,000  Level Cleveland Center
Wed 07:10:39 PM 41.0458 -82.9289 67° East 472 543 35,000  Level Cleveland Center
Wed 07:11:39 PM 41.0944 -82.7900 65° Northeast 472 543 35,000  Level Cleveland Center
Wed 07:12:39 PM 41.1475 -82.6264 67° East 472 543 35,000  Level Cleveland Center
Wed 07:13:39 PM 41.2003 -82.4708 66° East 472 543 35,000  Level Cleveland Center
Wed 07:14:39 PM 41.2528 -82.3092 67° East 472 543 35,000  Level Cleveland Center
Wed 07:15:39 PM 41.3050 -82.1503 66° East 472 543 35,000  Level Cleveland Center
Wed 07:16:39 PM 41.3614 -81.9831 66° East 477 549 35,000  Level Cleveland Center
Wed 07:17:39 PM 41.4175 -81.8153 66° East 456 525 35,000  Level Cleveland Center
Wed 07:18:39 PM 41.4714 -81.6500 66° East 463 533 35,000  Level Cleveland Center
Wed 07:19:39 PM 41.5186 -81.4900 68° East 469 540 35,000  Level Cleveland Center
Wed 07:20:39 PM 41.5656 -81.3436 67° East 475 547 35,000  Level Cleveland Center
Wed 07:21:39 PM 41.6167 -81.1803 67° East 470 541 35,000  Level Cleveland Center
Wed 07:22:39 PM 41.6672 -81.0194 67° East 473 544 35,000  Level Cleveland Center
Wed 07:23:39 PM 41.7178 -80.8558 67° East 473 544 35,000  Level Cleveland Center
Wed 07:24:39 PM 41.7681 -80.6889 68° East 473 544 35,000  Level Cleveland Center
Wed 07:25:39 PM 41.7933 -80.5192 79° East 473 544 35,000  Level Cleveland Center
Wed 07:26:39 PM 41.7761 -80.3242 97° East 473 544 35,000  Level Cleveland Center
Wed 07:27:39 PM 41.7569 -80.1433 98° East 483 556 35,000  Level Cleveland Center
Wed 07:29:39 PM 41.7197 -79.7903 98° East 483 556 35,000  Level Cleveland Center
Wed 07:30:39 PM 41.7017 -79.6125 98° East 483 556 35,000  Level Cleveland Center
Wed 07:31:39 PM 41.6811 -79.4350 99° East 483 556 35,000  Level Cleveland Center
Wed 07:32:39 PM 41.6672 -79.2961 98° East 483 556 35,000  Level Cleveland Center
Wed 07:33:39 PM 41.6439 -79.0856 98° East 483 556 35,000  Level Cleveland Center
Wed 07:34:39 PM 41.6247 -78.9108 98° East 483 556 35,000 -250 Level Cleveland Center
Wed 07:35:39 PM 41.6033 -78.7364 99° East 483 556 34,500 -795 Descending Cleveland Center
Wed 07:37:10 PM 41.5750 -78.4861 99° East 491 565 33,000 -993 Descending New York Center
Wed 07:38:10 PM 41.5528 -78.3114 100° East 486 559 32,000 -934 Descending New York Center
Wed 07:39:12 PM 41.5325 -78.1372 99° East 481 554 31,100 -500 Descending New York Center
Wed 07:40:10 PM 41.5117 -77.9658 99° East 471 542 31,000 -51 Descending New York Center
Wed 07:41:10 PM 41.4869 -77.7861 100° East 476 548 31,000  Level New York Center
Wed 07:42:11 PM 41.4619 -77.6117 101° East 476 548 31,000  Level New York Center
Wed 07:43:11 PM 41.4364 -77.4375 101° East 476 548 31,000  Level New York Center
Wed 07:44:10 PM 41.4072 -77.2464 101° East 476 548 31,000 -403 Level New York Center
Wed 07:45:10 PM 41.3814 -77.0697 101° East 476 548 30,200 -1,050 Descending New York Center
Wed 07:46:10 PM 41.3550 -76.8958 101° East 476 548 28,900 -1,388 Descending New York Center
Wed 07:47:11 PM 41.3225 -76.7189 104° East 476 548 27,400 -1,721 Descending New York Center
Wed 07:48:12 PM 41.2783 -76.5575 110° East 476 548 25,400 -2,218 Descending New York Center
Wed 07:49:10 PM 41.2372 -76.4133 111° Southeast 464 534 23,000 -2,420 Descending New York Center
Wed 07:50:11 PM 41.1986 -76.2611 109° East 452 520 20,600 -2,410 Descending New York Center
Wed 07:51:12 PM 41.1558 -76.1033 110° East 427 491 18,100 -1,322 Descending New York Center
Wed 07:52:09 PM 41.1183 -75.9625 109° East 409 471 18,000 -763 Descending New York Center
Wed 07:53:10 PM 41.0842 -75.8361 110° East 404 465 16,600 -1,869 Descending New York Center
Wed 07:54:11 PM 41.0461 -75.7011 110° East 392 451 14,200 -1,785 Descending New York Center
Wed 07:55:11 PM 41.0083 -75.5583 109° East 381 438 13,000 -595 Descending New York Center
Wed 07:56:12 PM 40.9775 -75.4461 110° East 370 426 13,000 -661 Level New York Center
Wed 07:57:09 PM 40.9350 -75.3058 112° Southeast 370 426 11,700 -1,412 Descending New York Center
Wed 07:58:11 PM 40.9019 -75.1856 110° East 365 420 10,200 -1,377 Descending New York Center
Wed 07:59:11 PM 40.8725 -75.0822 111° Southeast 325 374 8,900 -1,525 Descending New York Center
Wed 08:00:09 PM 40.8467 -74.9900 110° East 292 336 7,200 -1,008 Descending New York Center
Wed 08:01:10 PM 40.8444 -74.8775 91° East 277 319 6,900 -545 Descending New York Center
Wed 08:02:10 PM 40.8578 -74.7903 79° East 277 319 6,100 -446 Descending New York Center
Wed 08:03:11 PM 40.8697 -74.6842 81° East 271 312 6,000 -50 Descending New York Center
Wed 08:04:11 PM 40.8389 -74.6056 117° Southeast 254 292 6,000  Level New York Center
Wed 08:04:30 PM 40.8000 -74.5833 157° South 281 323 6,000 -608 Level New York TRACON
Wed 08:05:30 PM 40.7333 -74.5667 169° South 262 302 5,200 -500 Descending New York TRACON
Wed 08:06:30 PM 40.6667 -74.5333 159° South 256 295 5,000 -105 Descending New York TRACON
Wed 08:07:24 PM 40.6167 -74.4833 143° Southeast 271 312 5,000 -421 Level New York TRACON
Wed 08:08:24 PM 40.5667 -74.4000 128° Southeast 254 292 4,200 -950 Descending New York TRACON
Wed 08:09:24 PM 40.5500 -74.3333 108° East 215 247 3,100 -1,050 Descending New York TRACON
Wed 08:10:24 PM 40.5500 -74.2667 90° East 191 220 2,100 -571 Descending New York TRACON
Wed 08:11:30 PM 40.6000 -74.2333 27° Northeast 176 203 1,900 -182 Descending New York TRACON

Login

Don't have an account? Register now (free) for customized features, flight alerts, and more!